Time;durP1;ratioP1;P1;durP2;ratioP2;P2;SDS_P1;SDS_P2;PMS_P1;PMS_P2;Temp;Humidity;BMP_temperature;BMP_pressure;BME280_temperature;BME280_humidity;BME280_pressure;Samples;Min_cycle;Max_cycle;Signal;HPM_P1;HPM_P2
2023/09/06 00:00:43;;;;;;;3.20;2.90;;;19.90;1.00;;;;;;5077223;28;20551;-59
2023/09/06 00:03:11;;;;;;;3.07;2.80;;;19.90;1.00;;;;;;5077593;28;20467;-58
2023/09/06 00:05:41;;;;;;;5.23;3.20;;;19.70;1.00;;;;;;5077314;28;20536;-58
2023/09/06 00:08:09;;;;;;;4.47;3.20;;;19.70;1.00;;;;;;5077243;28;20476;-58
2023/09/06 00:10:39;;;;;;;4.23;3.23;;;19.70;1.00;;;;;;5077218;28;20878;-59
2023/09/06 00:13:08;;;;;;;3.70;3.40;;;19.60;1.00;;;;;;5077118;28;20731;-58
2023/09/06 00:15:36;;;;;;;3.90;2.63;;;19.50;88.90;;;;;;5076974;28;20460;-58
2023/09/06 00:18:05;;;;;;;3.37;3.07;;;19.40;99.90;;;;;;5076938;28;20457;-59
2023/09/06 00:20:34;;;;;;;4.13;3.10;;;19.30;99.90;;;;;;5077229;28;20582;-58
2023/09/06 00:23:04;;;;;;;4.13;3.00;;;19.30;99.90;;;;;;5076847;28;20461;-58
2023/09/06 00:25:32;;;;;;;3.80;3.10;;;19.30;32.10;;;;;;5076876;28;20895;-59
2023/09/06 00:28:02;;;;;;;4.40;3.93;;;19.40;1.00;;;;;;5076677;28;20651;-59
2023/09/06 00:30:30;;;;;;;5.80;2.90;;;19.40;99.90;;;;;;5077210;28;20472;-59
2023/09/06 00:32:59;;;;;;;6.30;3.57;;;19.30;70.00;;;;;;5076472;28;20457;-59
2023/09/06 00:35:27;;;;;;;3.50;3.20;;;19.30;82.50;;;;;;5076313;28;20493;-59
2023/09/06 00:38:06;;;;;;;4.60;3.37;;;19.20;99.90;;;;;;5076111;28;20543;-58
2023/09/06 00:40:36;;;;;;;3.77;3.47;;;19.10;99.90;;;;;;5076636;28;20515;-59
2023/09/06 00:43:03;;;;;;;6.90;3.30;;;19.00;99.90;;;;;;5076388;28;20468;-59
2023/09/06 00:45:37;;;;;;;3.47;3.17;;;19.00;99.90;;;;;;5076588;28;20738;-59
2023/09/06 00:48:06;;;;;;;7.77;4.20;;;19.00;99.90;;;;;;5076955;28;20839;-59
2023/09/06 00:50:35;;;;;;;4.83;3.30;;;18.80;99.90;;;;;;5076723;28;20480;-59
2023/09/06 00:53:06;;;;;;;4.20;3.30;;;18.80;99.90;;;;;;5076747;28;20461;-59
2023/09/06 00:55:34;;;;;;;3.67;3.37;;;18.70;99.90;;;;;;5076197;28;20500;-59
2023/09/06 00:58:01;;;;;;;4.77;3.60;;;18.80;99.90;;;;;;5076546;28;20898;-59
2023/09/06 01:00:30;;;;;;;4.63;3.47;;;18.80;99.90;;;;;;5076518;28;20457;-59
2023/09/06 01:02:57;;;;;;;3.50;3.00;;;18.70;99.90;;;;;;5076619;28;20778;-58
2023/09/06 01:05:26;;;;;;;4.00;3.20;;;18.70;99.90;;;;;;5075502;28;20584;-59
2023/09/06 01:07:58;;;;;;;4.70;3.63;;;18.70;99.90;;;;;;5075849;28;20461;-59
2023/09/06 01:10:27;;;;;;;3.20;2.90;;;18.60;1.00;;;;;;5076478;28;20467;-59
2023/09/06 01:12:55;;;;;;;4.23;3.57;;;18.50;99.90;;;;;;5076733;28;20500;-58
2023/09/06 01:15:22;;;;;;;4.27;3.90;;;18.50;1.00;;;;;;5075962;28;20492;-58
2023/09/06 01:17:52;;;;;;;4.63;3.10;;;18.50;1.00;;;;;;5076471;28;20879;-58
2023/09/06 01:20:29;;;;;;;5.27;3.07;;;18.60;99.90;;;;;;5080044;28;20898;-58
2023/09/06 01:23:07;;;;;;;4.67;3.80;;;18.40;99.90;;;;;;5080613;28;20888;-59
2023/09/06 01:25:36;;;;;;;3.63;3.27;;;18.40;1.00;;;;;;5079805;28;20938;-59
2023/09/06 01:28:04;;;;;;;4.43;3.23;;;18.40;1.00;;;;;;5079608;28;20841;-59
2023/09/06 01:30:31;;;;;;;4.73;3.17;;;18.40;1.00;;;;;;5080127;28;20461;-59
2023/09/06 01:32:58;;;;;;;3.80;3.40;;;18.50;1.00;;;;;;5080158;28;20461;-58
2023/09/06 01:35:25;;;;;;;4.60;3.43;;;18.40;1.00;;;;;;5079712;28;20580;-58
2023/09/06 01:37:52;;;;;;;7.17;3.57;;;18.50;1.00;;;;;;5079457;28;21005;-58
2023/09/06 01:40:20;;;;;;;4.17;3.33;;;18.40;1.00;;;;;;5079531;28;20547;-58
2023/09/06 01:42:48;;;;;;;4.30;3.90;;;18.30;1.00;;;;;;5079302;28;20467;-59
2023/09/06 01:45:17;;;;;;;5.10;3.40;;;18.30;1.00;;;;;;5079532;28;20456;-58
2023/09/06 01:47:46;;;;;;;3.60;3.30;;;18.20;1.00;;;;;;5079841;28;20461;-58
2023/09/06 01:50:13;;;;;;;6.60;3.37;;;18.20;1.00;;;;;;5079610;28;20530;-59
2023/09/06 01:52:41;;;;;;;3.70;3.40;;;18.10;1.00;;;;;;5079908;28;20465;-59
2023/09/06 01:55:09;;;;;;;3.13;2.83;;;18.10;1.00;;;;;;5079462;28;20960;-58
2023/09/06 01:57:36;;;;;;;3.73;3.33;;;18.10;1.00;;;;;;5079626;28;20860;-58
2023/09/06 02:00:18;;;;;;;3.27;2.83;;;18.10;1.00;;;;;;5078461;28;20835;-58
2023/09/06 02:02:46;;;;;;;3.93;3.50;;;18.00;1.00;;;;;;5079561;28;20522;-58
2023/09/06 02:05:14;;;;;;;4.07;3.70;;;18.10;1.00;;;;;;5079824;28;20453;-58
2023/09/06 02:07:41;;;;;;;8.03;3.23;;;18.00;1.00;;;;;;5079171;28;20457;-58
2023/09/06 02:10:10;;;;;;;4.80;3.53;;;18.10;1.00;;;;;;5079200;28;20496;-60
2023/09/06 02:12:37;;;;;;;3.60;3.30;;;18.10;1.00;;;;;;5079284;28;20457;-58
2023/09/06 02:15:07;;;;;;;3.67;3.37;;;18.10;1.00;;;;;;5078290;28;20489;-59
2023/09/06 02:17:35;;;;;;;3.87;3.50;;;17.90;1.00;;;;;;5078902;28;20969;-58
2023/09/06 02:20:13;;;;;;;4.33;3.90;;;18.00;1.00;;;;;;5078829;28;20890;-59
2023/09/06 02:22:41;;;;;;;3.83;3.37;;;18.00;1.00;;;;;;5079193;28;20439;-58
2023/09/06 02:25:09;;;;;;;4.00;3.30;;;17.90;1.00;;;;;;5079333;28;20556;-59
2023/09/06 02:27:36;;;;;;;3.60;3.30;;;17.90;1.00;;;;;;5078899;28;20461;-59
2023/09/06 02:30:07;;;;;;;3.83;3.23;;;18.00;1.00;;;;;;5078515;28;20457;-59
2023/09/06 02:32:35;;;;;;;3.93;3.10;;;18.10;1.00;;;;;;5078963;28;20552;-59
2023/09/06 02:35:03;;;;;;;4.73;3.43;;;18.00;1.00;;;;;;5078645;28;20507;-59
2023/09/06 02:37:30;;;;;;;3.57;3.10;;;17.90;1.00;;;;;;5078310;28;20487;-59
2023/09/06 02:39:57;;;;;;;5.20;3.67;;;17.80;1.00;;;;;;5078434;28;20753;-58
2023/09/06 02:42:26;;;;;;;3.93;3.57;;;17.80;1.00;;;;;;5078940;28;20457;-59
2023/09/06 02:44:53;;;;;;;4.50;3.73;;;17.70;1.00;;;;;;5078045;28;20466;-59
2023/09/06 02:47:28;;;;;;;3.97;3.57;;;17.80;1.00;;;;;;5078503;28;20708;-59
2023/09/06 02:49:56;;;;;;;4.40;4.00;;;17.70;1.00;;;;;;5078301;28;20494;-59
2023/09/06 02:52:29;;;;;;;4.23;3.40;;;17.70;1.00;;;;;;5078312;28;20562;-58
2023/09/06 02:54:58;;;;;;;4.60;3.63;;;17.60;1.00;;;;;;5078139;28;20498;-59
2023/09/06 02:57:26;;;;;;;4.17;3.43;;;17.70;1.00;;;;;;5077731;28;20461;-60
2023/09/06 02:59:54;;;;;;;4.93;3.60;;;17.70;1.00;;;;;;5077975;28;20507;-59
2023/09/06 03:02:22;;;;;;;3.27;2.97;;;17.80;1.00;;;;;;5078009;28;20457;-59
2023/09/06 03:04:54;;;;;;;4.20;3.80;;;17.70;1.00;;;;;;5078374;28;20454;-59
2023/09/06 03:07:22;;;;;;;5.13;3.50;;;17.70;1.00;;;;;;5077902;28;20493;-58
2023/09/06 03:09:52;;;;;;;3.93;3.30;;;17.60;1.00;;;;;;5078122;28;20501;-59
2023/09/06 03:12:19;;;;;;;4.53;3.67;;;17.60;1.00;;;;;;5076943;28;20453;-58
2023/09/06 03:14:48;;;;;;;3.70;3.27;;;17.60;1.00;;;;;;5076479;28;20501;-58
2023/09/06 03:17:18;;;;;;;4.87;3.80;;;17.60;1.00;;;;;;5075416;28;20467;-59
2023/09/06 03:19:53;;;;;;;5.50;3.80;;;17.70;1.00;;;;;;5075258;28;20500;-59
2023/09/06 03:22:22;;;;;;;4.23;3.43;;;17.80;1.00;;;;;;5076258;28;20461;-59
2023/09/06 03:24:55;;;;;;;3.93;3.53;;;17.70;1.00;;;;;;5076403;28;20457;-59
2023/09/06 03:27:22;;;;;;;4.10;3.70;;;17.80;1.00;;;;;;5076240;28;20864;-59
2023/09/06 03:29:51;;;;;;;6.00;4.40;;;17.70;1.00;;;;;;5075580;28;20474;-59
2023/09/06 03:32:19;;;;;;;5.10;4.00;;;17.60;1.00;;;;;;5076126;28;20464;-59
2023/09/06 03:34:49;;;;;;;4.23;3.83;;;17.50;1.00;;;;;;5074951;28;20942;-59
2023/09/06 03:37:18;;;;;;;5.67;4.07;;;17.30;1.00;;;;;;5074012;28;20928;-58
2023/09/06 03:39:47;;;;;;;5.07;4.10;;;17.20;21.60;;;;;;5074391;28;20560;-59
2023/09/06 03:42:15;;;;;;;5.93;4.63;;;17.20;39.90;;;;;;5074318;28;20488;-58
2023/09/06 03:44:42;;;;;;;4.60;3.77;;;17.00;20.40;;;;;;5075861;28;20461;-59
2023/09/06 03:47:14;;;;;;;4.50;4.00;;;16.90;56.90;;;;;;5076094;28;20468;-59
2023/09/06 03:49:43;;;;;;;6.60;4.10;;;16.90;99.90;;;;;;5076445;28;20508;-59
2023/09/06 03:52:12;;;;;;;4.77;3.43;;;16.80;99.90;;;;;;5077298;28;20465;-58
2023/09/06 03:54:40;;;;;;;4.40;4.00;;;16.80;99.90;;;;;;5077244;28;20547;-59
2023/09/06 03:57:12;;;;;;;4.20;3.80;;;16.70;99.90;;;;;;5077383;28;20468;-58
2023/09/06 03:59:40;;;;;;;6.10;4.07;;;16.70;99.90;;;;;;5077298;28;20790;-58
2023/09/06 04:02:13;;;;;;;6.03;3.80;;;16.60;99.90;;;;;;5076935;28;20461;-59
2023/09/06 04:04:47;;;;;;;5.43;4.53;;;16.60;99.90;;;;;;5077413;28;20860;-58
2023/09/06 04:07:16;;;;;;;5.80;4.60;;;16.60;99.90;;;;;;5077142;28;20460;-58
2023/09/06 04:09:44;;;;;;;6.20;5.33;;;16.50;99.90;;;;;;5076884;28;20817;-59
2023/09/06 04:12:11;;;;;;;6.87;5.43;;;16.50;99.90;;;;;;5076888;28;20499;-59
2023/09/06 04:14:38;;;;;;;6.73;4.87;;;16.40;99.90;;;;;;5076692;28;20460;-59
2023/09/06 04:17:07;;;;;;;6.03;4.30;;;16.40;99.90;;;;;;5077330;28;20548;-58
2023/09/06 04:19:34;;;;;;;7.10;4.40;;;16.30;99.90;;;;;;5077004;28;20436;-59
2023/09/06 04:22:02;;;;;;;5.40;4.90;;;16.40;99.90;;;;;;5077043;28;20725;-59
2023/09/06 04:24:31;;;;;;;5.90;4.30;;;16.30;99.90;;;;;;5077363;28;20762;-59
2023/09/06 04:26:59;;;;;;;5.80;4.47;;;16.20;99.90;;;;;;5077151;28;20543;-59
2023/09/06 04:29:26;;;;;;;5.67;4.57;;;16.20;99.90;;;;;;5076827;28;20510;-59
2023/09/06 04:31:54;;;;;;;4.57;4.13;;;16.20;99.90;;;;;;5075735;28;20464;-59
2023/09/06 04:34:22;;;;;;;6.43;4.87;;;16.20;99.90;;;;;;5075404;28;20461;-58
2023/09/06 04:36:49;;;;;;;8.10;5.40;;;16.10;99.90;;;;;;5075003;28;20497;-59
2023/09/06 04:39:20;;;;;;;6.80;4.97;;;16.00;99.90;;;;;;5074797;28;20449;-59
2023/09/06 04:41:49;;;;;;;6.83;5.50;;;15.90;99.90;;;;;;5075821;28;20459;-59
2023/09/06 04:44:16;;;;;;;5.57;5.07;;;15.90;99.90;;;;;;5075460;28;20453;-59
2023/09/06 04:46:44;;;;;;;5.47;4.73;;;16.00;99.90;;;;;;5076548;28;20460;-59
2023/09/06 04:49:11;;;;;;;9.57;5.50;;;16.00;99.90;;;;;;5076309;28;20564;-59
2023/09/06 04:51:38;;;;;;;6.60;4.73;;;16.00;99.90;;;;;;5076677;28;20540;-59
2023/09/06 04:54:09;;;;;;;6.80;4.53;;;15.90;99.90;;;;;;5080256;28;20535;-59
2023/09/06 04:56:36;;;;;;;5.03;4.40;;;15.90;99.90;;;;;;5080893;28;20500;-59
2023/09/06 04:59:05;;;;;;;6.90;4.97;;;15.70;99.90;;;;;;5080583;28;20756;-59
2023/09/06 05:01:32;;;;;;;5.17;4.10;;;15.70;99.90;;;;;;5080367;28;20553;-59
2023/09/06 05:03:59;;;;;;;8.30;4.47;;;15.70;99.90;;;;;;5080260;28;20776;-59
2023/09/06 05:06:26;;;;;;;5.97;4.53;;;15.70;99.90;;;;;;5079520;28;20827;-59
2023/09/06 05:08:53;;;;;;;5.43;3.60;;;15.70;99.90;;;;;;5079634;28;20928;-59
2023/09/06 05:11:21;;;;;;;7.67;5.53;;;15.70;99.90;;;;;;5080093;28;20809;-59
2023/09/06 05:13:48;;;;;;;7.10;4.33;;;15.80;99.90;;;;;;5080199;28;20441;-59
2023/09/06 05:16:16;;;;;;;5.90;4.60;;;15.70;99.90;;;;;;5080271;28;20983;-58
2023/09/06 05:18:44;;;;;;;7.73;4.77;;;15.70;99.90;;;;;;5079588;28;20465;-59
2023/09/06 05:21:11;;;;;;;6.83;5.47;;;15.70;99.90;;;;;;5080118;28;20991;-59
2023/09/06 05:23:38;;;;;;;5.33;4.60;;;15.70;99.90;;;;;;5099118;28;20557;-59
2023/09/06 05:26:06;;;;;;;7.67;5.43;;;15.60;99.90;;;;;;5099331;28;20452;-59
2023/09/06 05:28:33;;;;;;;5.00;4.40;;;15.60;99.90;;;;;;5099098;28;20480;-59
2023/09/06 05:31:03;;;;;;;5.60;4.53;;;15.70;1.00;;;;;;5096898;28;20448;-59
2023/09/06 05:33:32;;;;;;;7.03;4.40;;;15.70;1.00;;;;;;5099129;28;20532;-59
2023/09/06 05:35:59;;;;;;;5.93;4.57;;;15.80;99.90;;;;;;5100758;28;20491;-59
2023/09/06 05:38:29;;;;;;;6.50;5.00;;;15.80;99.90;;;;;;5120069;28;20848;-59
2023/09/06 05:40:58;;;;;;;5.87;4.43;;;15.80;99.90;;;;;;5119170;28;20458;-59
2023/09/06 05:43:26;;;;;;;8.00;5.30;;;15.90;1.00;;;;;;5118200;28;20765;-59
2023/09/06 05:45:53;;;;;;;5.30;4.53;;;15.80;99.90;;;;;;5118257;28;20456;-59
2023/09/06 05:48:20;;;;;;;6.93;4.70;;;15.90;1.00;;;;;;5118314;28;20508;-59
2023/09/06 05:50:49;;;;;;;6.30;5.40;;;16.00;1.00;;;;;;5117678;28;20464;-59
2023/09/06 05:53:16;;;;;;;6.57;5.23;;;16.10;99.90;;;;;;5118116;28;20430;-59
2023/09/06 05:55:44;;;;;;;9.03;5.60;;;16.20;1.00;;;;;;5118241;28;20502;-59
2023/09/06 05:58:11;;;;;;;5.67;5.17;;;16.30;1.00;;;;;;5119802;28;20474;-58
2023/09/06 06:00:38;;;;;;;8.03;5.17;;;16.40;1.00;;;;;;5119836;28;20456;-59
2023/09/06 06:03:07;;;;;;;9.47;5.13;;;16.40;1.00;;;;;;5118317;28;20462;-59
2023/09/06 06:05:34;;;;;;;7.20;5.23;;;16.40;1.00;;;;;;5117639;28;20959;-58
2023/09/06 06:08:03;;;;;;;7.47;5.27;;;16.50;1.00;;;;;;5118239;28;20955;-59
2023/09/06 06:10:34;;;;;;;7.10;5.00;;;16.60;1.00;;;;;;5118293;28;20459;-59
2023/09/06 06:13:03;;;;;;;9.30;5.53;;;16.70;1.00;;;;;;5118456;28;20524;-58
2023/09/06 06:15:30;;;;;;;6.73;5.80;;;16.90;99.90;;;;;;5118061;28;20587;-59
2023/09/06 06:17:58;;;;;;;6.83;6.13;;;17.00;1.00;;;;;;5119665;27;20806;-59
2023/09/06 06:20:25;;;;;;;7.03;5.60;;;17.20;99.90;;;;;;5119777;28;20455;-59
2023/09/06 06:22:52;;;;;;;6.00;5.40;;;17.40;1.00;;;;;;5119658;28;20462;-58
2023/09/06 06:25:21;;;;;;;9.27;5.83;;;17.50;99.90;;;;;;5119268;28;20512;-59
2023/09/06 06:27:51;;;;;;;11.50;6.47;;;17.70;99.90;;;;;;5119506;28;20546;-58
2023/09/06 06:30:19;;;;;;;8.67;6.53;;;18.00;99.90;;;;;;5119308;28;20777;-60
2023/09/06 06:32:47;;;;;;;10.07;5.20;;;18.10;99.90;;;;;;5119718;28;20597;-59
2023/09/06 06:35:14;;;;;;;9.43;6.00;;;18.30;99.90;;;;;;5119229;28;20508;-59
2023/09/06 06:37:42;;;;;;;6.43;5.13;;;18.50;99.90;;;;;;5102771;28;20570;-59
2023/09/06 06:40:10;;;;;;;5.60;4.57;;;18.80;99.90;;;;;;5117383;28;20479;-59
2023/09/06 06:42:40;;;;;;;10.00;4.40;;;19.00;99.90;;;;;;5119046;28;20856;-59
2023/09/06 06:45:09;;;;;;;5.10;4.47;;;19.30;1.00;;;;;;5119436;28;20456;-59
2023/09/06 06:47:36;;;;;;;8.60;4.10;;;19.40;1.00;;;;;;5118716;28;20509;-58
2023/09/06 06:50:06;;;;;;;5.63;4.60;;;19.50;1.00;;;;;;5118960;28;20456;-59
2023/09/06 06:52:36;;;;;;;5.43;3.80;;;19.70;1.00;;;;;;5119333;28;20516;-59
2023/09/06 06:55:04;;;;;;;6.97;4.50;;;19.80;99.90;;;;;;5119157;28;20531;-59
2023/09/06 06:57:33;;;;;;;8.43;4.60;;;20.10;1.00;;;;;;5118636;28;20979;-58
2023/09/06 07:00:05;;;;;;;10.90;4.90;;;20.30;1.00;;;;;;5118857;28;20463;-59
2023/09/06 07:02:32;;;;;;;5.90;3.93;;;20.50;99.90;;;;;;5118375;28;20456;-59
2023/09/06 07:05:00;;;;;;;9.83;4.13;;;20.60;99.90;;;;;;5117082;28;20722;-59
2023/09/06 07:07:27;;;;;;;7.03;4.93;;;20.90;99.90;;;;;;5116969;28;20889;-58
2023/09/06 07:09:55;;;;;;;5.20;4.20;;;21.30;99.90;;;;;;5118059;28;20466;-59
2023/09/06 07:12:22;;;;;;;4.67;4.27;;;21.50;99.90;;;;;;5118313;28;20495;-59
2023/09/06 07:14:50;;;;;;;5.17;4.67;;;21.70;99.90;;;;;;5118206;28;20490;-59
2023/09/06 07:17:19;;;;;;;7.43;4.30;;;22.00;99.90;;;;;;5116228;28;20480;-59
2023/09/06 07:19:47;;;;;;;7.77;4.70;;;22.20;99.90;;;;;;5117680;28;20554;-59
2023/09/06 07:22:14;;;;;;;5.57;4.63;;;22.50;91.70;;;;;;5117740;28;20456;-59
2023/09/06 07:24:42;;;;;;;7.97;5.60;;;22.70;1.00;;;;;;5117907;28;20519;-59
2023/09/06 07:27:09;;;;;;;10.50;5.40;;;22.60;99.90;;;;;;5117728;28;20451;-59
2023/09/06 07:29:36;;;;;;;8.50;5.57;;;23.00;1.00;;;;;;5117353;28;20496;-59
2023/09/06 07:32:04;;;;;;;5.73;5.23;;;23.00;99.90;;;;;;5118292;28;20456;-59
2023/09/06 07:34:33;;;;;;;6.33;5.73;;;23.30;1.00;;;;;;5118181;28;20516;-59
2023/09/06 07:37:00;;;;;;;6.50;5.43;;;23.50;99.90;;;;;;5118085;28;20489;-59
2023/09/06 07:39:28;;;;;;;6.33;5.07;;;23.70;99.90;;;;;;5117997;28;20493;-59
2023/09/06 07:41:56;;;;;;;6.10;5.47;;;24.00;99.90;;;;;;5117854;28;20462;-59
2023/09/06 07:44:23;;;;;;;4.87;4.37;;;24.20;99.90;;;;;;5117974;28;20463;-59
2023/09/06 07:46:50;;;;;;;7.30;4.80;;;24.40;99.90;;;;;;5118322;28;20948;-59
2023/09/06 07:49:18;;;;;;;5.90;5.30;;;24.60;99.90;;;;;;5117759;28;20743;-59
2023/09/06 07:51:47;;;;;;;8.30;5.10;;;24.90;99.90;;;;;;5117841;28;20455;-58
2023/09/06 07:54:14;;;;;;;5.00;4.50;;;25.20;12.10;;;;;;5117975;28;20459;-59
2023/09/06 07:56:42;;;;;;;6.97;4.80;;;25.30;1.00;;;;;;5118055;28;20883;-59
2023/09/06 07:59:11;;;;;;;7.13;5.13;;;25.50;1.00;;;;;;5117963;28;20470;-59
2023/09/06 08:01:38;;;;;;;4.57;4.17;;;25.80;1.00;;;;;;5117759;28;20459;-59
2023/09/06 08:04:06;;;;;;;5.13;4.60;;;25.90;99.90;;;;;;5106135;28;20539;-60
2023/09/06 08:06:34;;;;;;;5.07;4.67;;;26.20;99.90;;;;;;5096520;28;20546;-59
2023/09/06 08:09:02;;;;;;;4.83;4.43;;;26.40;99.90;;;;;;5096493;28;20456;-59
2023/09/06 08:11:30;;;;;;;5.47;4.77;;;26.50;99.90;;;;;;5095763;28;20546;-59
2023/09/06 08:13:57;;;;;;;5.20;4.70;;;26.70;99.90;;;;;;5076760;28;20464;-59
2023/09/06 08:16:25;;;;;;;5.20;4.70;;;26.80;99.90;;;;;;5090794;28;20578;-58
2023/09/06 08:18:53;;;;;;;5.47;4.97;;;27.00;72.90;;;;;;5109872;28;20948;-59
2023/09/06 08:21:21;;;;;;;5.67;5.07;;;27.10;59.60;;;;;;5116166;28;20459;-58
2023/09/06 08:23:48;;;;;;;5.40;5.00;;;27.30;1.00;;;;;;5099448;28;20472;-59
2023/09/06 08:26:17;;;;;;;5.87;5.20;;;27.40;1.00;;;;;;5097268;28;20478;-59
2023/09/06 08:28:44;;;;;;;5.70;5.13;;;27.60;1.00;;;;;;5098772;28;20495;-59
2023/09/06 08:31:12;;;;;;;7.13;5.47;;;27.70;1.00;;;;;;5100569;28;20495;-60
2023/09/06 08:33:39;;;;;;;4.70;4.20;;;27.70;1.00;;;;;;5099796;28;20524;-59
2023/09/06 08:36:07;;;;;;;5.17;4.67;;;27.90;1.00;;;;;;5100425;28;20590;-59
2023/09/06 08:38:34;;;;;;;5.90;5.40;;;28.10;1.00;;;;;;5106099;28;20774;-59
2023/09/06 08:41:02;;;;;;;4.77;4.27;;;28.30;1.00;;;;;;5121113;28;20907;-59
2023/09/06 08:43:36;;;;;;;5.30;4.80;;;28.40;1.00;;;;;;5121350;28;20936;-59
2023/09/06 08:46:09;;;;;;;5.40;4.90;;;28.50;99.90;;;;;;5121738;28;20459;-59
2023/09/06 08:48:38;;;;;;;5.80;5.20;;;28.40;99.90;;;;;;5121503;28;20783;-59
2023/09/06 08:51:07;;;;;;;6.87;6.27;;;28.50;99.90;;;;;;5120871;28;20455;-59
2023/09/06 08:53:35;;;;;;;6.90;5.37;;;28.50;99.90;;;;;;5121394;28;20463;-59
2023/09/06 08:56:03;;;;;;;6.10;5.50;;;28.70;99.90;;;;;;5121282;28;20455;-59
2023/09/06 08:58:32;;;;;;;5.40;4.93;;;29.00;99.90;;;;;;5120875;28;20546;-59
2023/09/06 09:01:00;;;;;;;5.23;4.80;;;29.20;99.90;;;;;;5121278;28;20455;-60
2023/09/06 09:03:27;;;;;;;5.80;5.30;;;29.40;99.90;;;;;;5119517;28;20813;-60
2023/09/06 09:06:00;;;;;;;5.80;5.20;;;29.50;99.90;;;;;;5119567;28;20463;-60
2023/09/06 09:08:30;;;;;;;5.17;4.77;;;29.70;99.90;;;;;;5120853;28;20902;-59
2023/09/06 09:11:09;;;;;;;6.20;5.20;;;29.80;99.90;;;;;;5119931;28;20949;-59
2023/09/06 09:13:38;;;;;;;5.33;4.83;;;30.00;99.90;;;;;;5120607;28;20455;-60
2023/09/06 09:16:09;;;;;;;5.57;5.07;;;30.10;99.90;;;;;;5120526;28;20549;-59
2023/09/06 09:18:38;;;;;;;5.93;5.37;;;30.20;99.90;;;;;;5120290;28;20842;-60
2023/09/06 09:21:05;;;;;;;5.03;4.63;;;30.30;99.90;;;;;;5119517;28;20459;-59
2023/09/06 09:23:33;;;;;;;5.90;4.80;;;30.30;99.90;;;;;;5119299;28;20584;-59
2023/09/06 09:26:00;;;;;;;5.27;4.40;;;30.50;99.90;;;;;;5119881;28;20530;-59
2023/09/06 09:28:33;;;;;;;5.30;4.80;;;30.60;99.90;;;;;;5119925;28;20457;-59
2023/09/06 09:31:05;;;;;;;7.20;4.90;;;30.70;99.90;;;;;;5112457;28;20463;-60
2023/09/06 09:33:33;;;;;;;5.30;4.90;;;30.90;99.90;;;;;;5117211;28;20474;-59
2023/09/06 09:36:02;;;;;;;5.70;5.10;;;30.90;99.90;;;;;;5122643;27;20538;-59
2023/09/06 09:38:31;;;;;;;6.17;5.07;;;31.10;99.90;;;;;;5115035;28;20484;-59
2023/09/06 09:41:31;;;;;;;5.60;5.10;;;31.20;99.90;;;;;;5097423;28;20538;-59
2023/09/06 09:44:13;;;;;;;5.00;4.43;;;31.50;99.90;;;;;;5099609;28;20456;-60
2023/09/06 09:46:44;;;;;;;5.40;4.80;;;31.50;99.90;;;;;;5099338;28;20554;-59
2023/09/06 09:49:12;;;;;;;5.37;4.97;;;31.60;99.90;;;;;;5099985;28;20455;-60
2023/09/06 09:51:40;;;;;;;6.10;4.83;;;31.70;99.90;;;;;;5097220;28;20911;-59
2023/09/06 09:54:08;;;;;;;5.67;5.23;;;31.60;99.90;;;;;;5095956;28;20503;-60
2023/09/06 09:56:38;;;;;;;5.67;5.07;;;31.60;99.90;;;;;;5096401;28;20936;-60
2023/09/06 09:59:06;;;;;;;5.00;4.50;;;31.70;99.90;;;;;;5098930;28;20448;-60
2023/09/06 10:01:33;;;;;;;5.07;4.67;;;31.70;99.90;;;;;;5098001;28;20503;-57
2023/09/06 10:04:06;;;;;;;5.97;4.50;;;31.80;99.90;;;;;;5098116;28;20451;-57
2023/09/06 10:06:34;;;;;;;5.70;5.20;;;32.00;99.90;;;;;;5098909;28;20452;-57
2023/09/06 10:09:08;;;;;;;5.47;4.97;;;32.10;99.90;;;;;;5099945;28;20460;-57
2023/09/06 10:11:38;;;;;;;6.03;5.53;;;32.10;99.90;;;;;;5099529;28;20554;-59
2023/09/06 10:14:07;;;;;;;5.00;4.60;;;32.20;99.90;;;;;;5099445;28;20455;-57
2023/09/06 10:16:34;;;;;;;5.40;5.00;;;32.10;99.90;;;;;;5099314;28;20541;-58
2023/09/06 10:19:03;;;;;;;6.53;4.47;;;32.40;99.90;;;;;;5099421;28;20460;-58
2023/09/06 10:21:32;;;;;;;5.63;5.13;;;32.50;99.90;;;;;;5099125;28;20456;-57
2023/09/06 10:24:00;;;;;;;5.63;5.23;;;32.70;99.90;;;;;;5098914;28;20451;-58
2023/09/06 10:26:34;;;;;;;6.97;5.23;;;32.90;99.90;;;;;;5099453;28;20756;-58
2023/09/06 10:29:02;;;;;;;5.40;5.00;;;33.10;99.90;;;;;;5099358;28;20806;-57
2023/09/06 10:31:36;;;;;;;4.70;4.40;;;33.30;1.00;;;;;;5098913;28;20564;-58
2023/09/06 10:34:07;;;;;;;5.03;4.63;;;33.20;1.00;;;;;;5098430;28;20456;-58
2023/09/06 10:36:51;;;;;;;4.80;4.40;;;33.10;99.90;;;;;;5099263;28;20894;-58
2023/09/06 10:39:21;;;;;;;4.57;4.17;;;33.20;99.90;;;;;;5097844;28;20484;-58
2023/09/06 10:42:29;;;;;;;4.77;4.37;;;33.10;1.00;;;;;;5097436;28;20835;-58
2023/09/06 10:45:18;;;;;;;4.83;4.43;;;33.50;88.60;;;;;;5097657;28;20447;-58
2023/09/06 10:47:45;;;;;;;5.40;5.00;;;33.40;1.00;;;;;;5090719;28;20459;-57
2023/09/06 10:50:22;;;;;;;4.93;4.53;;;33.40;1.00;;;;;;5096845;28;20455;-58
2023/09/06 10:52:53;;;;;;;4.60;4.20;;;33.30;99.90;;;;;;5097338;28;20566;-58
2023/09/06 10:55:23;;;;;;;5.60;5.10;;;33.50;1.00;;;;;;5097795;28;20454;-57
2023/09/06 10:57:56;;;;;;;4.80;4.40;;;33.60;1.00;;;;;;5098149;28;20491;-58
2023/09/06 11:00:30;;;;;;;6.17;4.33;;;33.70;1.00;;;;;;5098652;28;20456;-57
2023/09/06 11:03:21;;;;;;;5.03;4.63;;;33.80;99.90;;;;;;5098756;28;20459;-58
2023/09/06 11:05:58;;;;;;;4.83;4.43;;;33.90;99.90;;;;;;5097578;28;20513;-58
2023/09/06 11:08:30;;;;;;;5.03;4.43;;;34.00;99.90;;;;;;5098544;28;20451;-57
2023/09/06 11:11:07;;;;;;;4.60;4.30;;;34.00;99.90;;;;;;5098458;28;20836;-58
2023/09/06 11:13:38;;;;;;;4.50;4.20;;;34.10;99.90;;;;;;5095139;28;20471;-58
2023/09/06 11:16:11;;;;;;;4.67;4.20;;;34.20;99.90;;;;;;5096797;28;20806;-58
2023/09/06 11:18:46;;;;;;;4.30;3.90;;;34.30;99.90;;;;;;5092796;28;20494;-58
2023/09/06 11:21:19;;;;;;;5.97;5.50;;;34.30;1.00;;;;;;5087240;28;20468;-57
2023/09/06 11:23:47;;;;;;;4.70;4.37;;;34.40;99.90;;;;;;5094576;28;21107;-58
2023/09/06 11:26:15;;;;;;;5.00;4.60;;;34.40;99.90;;;;;;5079725;28;20462;-57
2023/09/06 11:28:44;;;;;;;4.23;3.93;;;34.40;1.00;;;;;;5097958;28;20462;-58
2023/09/06 11:31:23;;;;;;;4.57;4.20;;;34.40;1.00;;;;;;5097456;28;20480;-58
2023/09/06 11:33:55;;;;;;;4.40;4.10;;;34.50;1.00;;;;;;5096216;28;20843;-58
2023/09/06 11:36:29;;;;;;;4.70;4.40;;;34.70;1.00;;;;;;5095204;28;20921;-58
2023/09/06 11:38:57;;;;;;;4.90;4.40;;;34.70;99.90;;;;;;5097034;28;20491;-57
2023/09/06 11:41:25;;;;;;;4.63;4.10;;;34.80;1.00;;;;;;5097446;28;20448;-57
2023/09/06 11:43:56;;;;;;;6.40;5.90;;;34.80;13.10;;;;;;5096964;28;20662;-58
2023/09/06 11:46:24;;;;;;;6.38;5.78;;;34.80;1.00;;;;;;5097097;28;20471;-57
2023/09/06 11:48:53;;;;;;;6.38;5.88;;;34.80;1.00;;;;;;5096437;28;20616;-58
2023/09/06 11:51:23;;;;;;;5.13;4.72;;;35.00;77.00;;;;;;5095448;28;20205;-58
2023/09/06 11:54:00;;;;;;;5.18;4.78;;;35.00;1.00;;;;;;5076694;28;20198;-57
2023/09/06 11:56:33;;;;;;;4.95;4.65;;;35.20;1.00;;;;;;5083233;28;20622;-58
2023/09/06 11:59:06;;;;;;;5.05;4.65;;;35.10;99.90;;;;;;5086750;28;20218;-58
2023/09/06 12:01:40;;;;;;;4.60;4.30;;;35.20;1.00;;;;;;5082824;28;20202;-58
2023/09/06 12:04:10;;;;;;;4.80;4.50;;;35.40;99.90;;;;;;5092147;28;20545;-59
2023/09/06 12:06:39;;;;;;;5.30;4.90;;;35.60;99.90;;;;;;5090283;28;20201;-58
2023/09/06 12:09:12;;;;;;;4.72;4.35;;;35.60;99.90;;;;;;5076016;28;20206;-57
2023/09/06 12:11:39;;;;;;;5.28;4.88;;;35.60;1.00;;;;;;5087646;28;20202;-58
2023/09/06 12:14:09;;;;;;;5.00;4.60;;;35.80;1.00;;;;;;5080689;28;20198;-59
2023/09/06 12:16:37;;;;;;;4.47;4.18;;;35.90;99.90;;;;;;5080608;28;20244;-59
2023/09/06 12:19:04;;;;;;;4.63;4.32;;;35.80;99.90;;;;;;5077402;28;20377;-58
2023/09/06 12:21:32;;;;;;;8.00;4.97;;;35.90;1.00;;;;;;5105105;28;20202;-58
2023/09/06 12:24:00;;;;;;;5.00;4.60;;;36.00;99.90;;;;;;5094141;28;20202;-58
2023/09/06 12:26:29;;;;;;;4.68;4.38;;;36.20;99.90;;;;;;5095219;28;20626;-58
2023/09/06 12:28:56;;;;;;;4.57;4.20;;;36.10;99.90;;;;;;5094681;28;20237;-58
2023/09/06 12:31:23;;;;;;;4.78;4.38;;;35.90;99.90;;;;;;5089387;28;20202;-58
2023/09/06 12:33:51;;;;;;;4.68;4.28;;;35.80;99.90;;;;;;5093614;28;20204;-58
2023/09/06 12:36:19;;;;;;;4.80;4.40;;;36.00;1.00;;;;;;5095038;28;20290;-58
2023/09/06 12:38:47;;;;;;;4.82;4.43;;;36.00;1.00;;;;;;5103333;28;20241;-58
2023/09/06 12:41:15;;;;;;;5.25;4.20;;;36.00;1.00;;;;;;5117022;28;20304;-58
2023/09/06 12:43:43;;;;;;;4.38;3.97;;;36.20;26.30;;;;;;5096886;28;20208;-57
2023/09/06 12:46:12;;;;;;;4.30;4.00;;;36.40;99.90;;;;;;5095919;28;20244;-57
2023/09/06 12:48:41;;;;;;;4.38;4.07;;;36.30;99.90;;;;;;5095993;28;20202;-58
2023/09/06 12:51:09;;;;;;;4.20;3.50;;;36.00;75.00;;;;;;5096074;28;20205;-58
2023/09/06 12:53:39;;;;;;;4.03;3.72;;;36.10;99.90;;;;;;5096252;28;20304;-58
2023/09/06 12:56:07;;;;;;;3.60;3.40;;;36.20;99.90;;;;;;5092762;28;20206;-57
2023/09/06 12:58:34;;;;;;;3.85;3.55;;;36.20;99.90;;;;;;5096152;28;20528;-58
2023/09/06 13:01:10;;;;;;;3.85;3.55;;;36.00;99.90;;;;;;5095858;28;20298;-58